Time;durP1;ratioP1;P1;durP2;ratioP2;P2;SDS_P1;SDS_P2;PMS_P1;PMS_P2;Temp;Humidity;BMP_temperature;BMP_pressure;BME280_temperature;BME280_humidity;BME280_pressure;Samples;Min_cycle;Max_cycle;Signal;HPM_P1;HPM_P2
2022/08/11 12:14:37;;;;;;;2.40;2.20;;;;;;;28.79;35.92;96937.38;6170946;22;20285;-79
2022/08/11 12:17:04;;;;;;;2.60;2.00;;;;;;;28.30;36.90;96906.94;6112029;22;20240;-78
2022/08/11 12:19:32;;;;;;;4.03;2.23;;;;;;;28.56;36.33;96893.22;6157326;22;20181;-76
2022/08/11 12:28:44;;;;;;;3.30;1.97;;;;;;;28.16;36.50;96881.13;6186076;22;20159;-76
2022/08/11 12:31:12;;;;;;;2.90;2.20;;;;;;;28.41;36.21;96879.84;6135571;22;20173;-75
2022/08/11 12:33:43;;;;;;;3.07;2.10;;;;;;;28.12;36.43;96802.59;6164379;22;20202;-78
2022/08/11 12:36:15;;;;;;;3.10;2.37;;;;;;;28.26;37.63;96895.00;6145822;22;20493;-75
2022/08/11 12:38:46;;;;;;;4.07;1.93;;;;;;;28.65;37.93;96962.22;6171428;22;20166;-78
2022/08/11 12:46:59;;;;;;;3.40;2.20;;;;;;;27.87;36.83;96785.22;6141520;22;20166;-76
2022/08/11 12:52:27;;;;;;;2.27;2.07;;;;;;;28.55;36.23;96894.16;6164554;22;20204;-77
2022/08/11 12:55:02;;;;;;;3.37;2.00;;;;;;;28.46;37.49;96856.13;6139234;22;20173;-80
2022/08/11 13:06:03;;;;;;;3.07;2.20;;;;;;;27.62;36.44;96787.31;6163856;22;20166;-78
2022/08/11 13:08:35;;;;;;;2.03;1.90;;;;;;;28.31;35.98;96884.63;6162434;22;20170;-78
2022/08/11 13:14:13;;;;;;;2.47;1.97;;;;;;;27.32;37.25;96759.81;6164959;22;20190;-77
2022/08/11 13:19:31;;;;;;;2.87;2.17;;;;;;;28.10;37.67;96882.69;6147519;22;20437;-81
2022/08/11 13:22:01;;;;;;;4.33;2.20;;;;;;;27.86;37.86;96877.56;6140703;22;20245;-78
2022/08/11 13:24:32;;;;;;;2.30;2.10;;;;;;;27.69;38.55;96819.34;6143962;22;20297;-78
2022/08/11 13:27:03;;;;;;;4.80;1.70;;;;;;;27.85;37.67;96899.06;6161569;22;20420;-75
2022/08/11 13:29:31;;;;;;;2.27;2.10;;;;;;;27.74;39.01;96907.50;6137412;22;20163;-77
2022/08/11 13:31:59;;;;;;;3.13;2.50;;;;;;;27.48;38.57;96848.47;6162494;22;20174;-78
2022/08/11 13:34:29;;;;;;;2.00;1.90;;;;;;;27.47;37.91;96852.16;6137552;22;20228;-77
2022/08/11 13:37:03;;;;;;;3.13;2.10;;;;;;;27.75;37.68;96866.53;6163176;22;20181;-76
2022/08/11 13:39:32;;;;;;;3.53;2.23;;;;;;;26.98;37.48;96748.81;6162251;22;20174;-77
2022/08/11 13:42:02;;;;;;;2.20;2.00;;;;;;;27.59;37.82;96829.44;6161371;22;20166;-75
2022/08/11 13:44:35;;;;;;;3.70;2.50;;;;;;;28.07;37.47;96871.56;6162753;22;20197;-76
2022/08/11 13:47:05;;;;;;;3.90;2.57;;;;;;;27.81;38.25;96858.66;6137300;22;20159;-77
2022/08/11 13:49:36;;;;;;;3.10;1.80;;;;;;;28.02;37.99;96869.47;6138525;22;20170;-77
2022/08/11 13:52:11;;;;;;;3.60;1.90;;;;;;;27.09;38.07;96816.69;6161939;22;20170;-76
2022/08/11 13:54:40;;;;;;;2.90;2.17;;;;;;;27.27;38.91;96903.16;6139344;22;20441;-78
2022/08/11 13:57:11;;;;;;;2.17;2.07;;;;;;;26.67;38.72;96787.06;6114141;22;20159;-80
2022/08/11 14:00:08;;;;;;;4.20;2.40;;;;;;;27.25;38.56;96844.00;6141407;22;20170;-78
2022/08/11 14:02:56;;;;;;;2.80;1.90;;;;;;;27.12;37.75;96837.63;6181870;22;20167;-80
2022/08/11 14:05:36;;;;;;;1.70;1.60;;;;;;;26.88;36.53;96780.13;6163166;22;20159;-77
2022/08/11 14:08:11;;;;;;;2.40;2.20;;;;;;;27.91;37.34;96916.97;6144881;22;20166;-77
2022/08/11 14:14:12;;;;;;;4.53;3.40;;;;;;;27.55;36.09;96769.59;6165559;22;20190;-76
2022/08/11 14:16:43;;;;;;;2.83;2.03;;;;;;;27.87;37.74;96895.22;6164062;22;20575;-79
2022/08/11 14:19:13;;;;;;;3.40;2.03;;;;;;;27.82;37.73;96892.25;6168079;22;20194;-76
2022/08/11 14:24:37;;;;;;;3.53;2.37;;;;;;;26.37;40.32;96823.25;6162314;22;20236;-77
2022/08/11 14:27:07;;;;;;;2.40;2.20;;;;;;;26.99;41.43;96955.19;6164182;22;20164;-77
2022/08/11 14:29:56;;;;;;;2.03;1.83;;;;;;;27.03;41.76;96955.66;6142532;22;20460;-78
2022/08/11 14:32:25;;;;;;;3.37;2.17;;;;;;;25.99;41.71;96800.94;6165909;22;20198;-76
2022/08/11 14:34:54;;;;;;;2.60;2.40;;;;;;;26.19;41.54;96838.59;6139091;22;20184;-77
2022/08/11 14:37:24;;;;;;;2.93;2.40;;;;;;;26.04;41.51;96829.63;6142585;22;20171;-76
2022/08/11 14:39:53;;;;;;;2.80;2.60;;;;;;;26.45;41.80;96882.47;6142381;22;20189;-79
2022/08/11 14:48:22;;;;;;;3.47;2.70;;;;;;;26.52;40.90;96909.97;6163101;22;20174;-78
2022/08/11 14:50:51;;;;;;;5.33;2.57;;;;;;;26.55;40.99;96899.03;6163044;22;20163;-77
2022/08/11 14:53:21;;;;;;;3.90;2.30;;;;;;;26.40;40.90;96866.22;6166720;22;20194;-76
2022/08/11 14:58:41;;;;;;;3.30;2.30;;;;;;;26.53;40.54;96863.00;6164370;22;20175;-76
2022/08/11 15:03:59;;;;;;;2.27;2.00;;;;;;;27.02;39.98;96928.22;6167149;22;20159;-78
2022/08/11 15:06:47;;;;;;;2.33;1.80;;;;;;;26.06;40.36;96795.78;6189672;22;20180;-78
2022/08/11 15:09:14;;;;;;;3.83;2.27;;;;;;;26.96;40.19;96910.31;6142581;22;20178;-80
2022/08/11 15:17:22;;;;;;;2.00;1.80;;;;;;;26.71;40.27;96930.00;6165705;22;20179;-78
2022/08/11 15:25:45;;;;;;;2.10;1.90;;;;;;;26.45;39.55;96865.69;6163033;22;20461;-79
2022/08/11 15:46:28;;;;;;;3.47;2.13;;;;;;;26.78;41.12;96944.31;6166401;22;20162;-77
2022/08/11 15:49:05;;;;;;;2.97;2.30;;;;;;;26.12;41.00;96846.41;6169400;22;20444;-78
2022/08/11 15:51:41;;;;;;;3.23;2.10;;;;;;;26.22;41.39;96856.81;6167754;22;20233;-78
2022/08/11 15:54:24;;;;;;;2.50;2.03;;;;;;;26.78;40.78;96952.28;6169266;22;20201;-77
2022/08/11 15:56:54;;;;;;;2.90;2.30;;;;;;;26.30;40.44;96843.50;6144889;22;20395;-77
2022/08/11 16:05:05;;;;;;;2.80;2.50;;;;;;;26.26;41.00;96855.47;6163902;22;20174;-76
2022/08/11 16:07:36;;;;;;;4.10;2.40;;;;;;;26.29;40.96;96860.44;6167228;22;20168;-78
2022/08/11 16:10:23;;;;;;;2.57;2.37;;;;;;;26.54;41.49;96945.19;6162436;22;20181;-77
2022/08/11 16:18:40;;;;;;;2.47;2.27;;;;;;;25.90;42.00;96926.72;6162372;22;20192;-76
2022/08/11 16:21:15;;;;;;;2.83;2.53;;;;;;;25.86;42.09;96916.59;6138914;22;20516;-75
2022/08/11 16:24:05;;;;;;;4.97;2.70;;;;;;;26.07;42.11;96922.22;6139654;22;20457;-76
2022/08/11 16:26:37;;;;;;;2.90;2.57;;;;;;;25.36;42.12;96798.25;6138479;22;20256;-77
2022/08/11 16:29:28;;;;;;;2.40;2.20;;;;;;;25.57;42.37;96869.38;6165431;22;20181;-77
2022/08/11 16:32:15;;;;;;;3.77;2.70;;;;;;;25.90;42.13;96936.50;6164441;22;20489;-76
2022/08/11 16:40:21;;;;;;;3.30;3.00;;;;;;;25.27;42.14;96828.41;6162887;22;20178;-76
2022/08/11 16:48:32;;;;;;;5.60;2.90;;;;;;;25.85;42.05;96907.81;6164388;22;20166;-79
2022/08/11 16:51:06;;;;;;;2.80;2.53;;;;;;;25.81;42.12;96903.81;6139332;22;20166;-76
2022/08/11 16:53:34;;;;;;;2.60;2.40;;;;;;;25.45;41.88;96854.78;6139661;22;20194;-76
2022/08/11 16:56:40;;;;;;;3.13;2.60;;;;;;;25.81;41.90;96899.34;6144718;22;20162;-76
2022/08/11 16:59:16;;;;;;;3.60;2.43;;;;;;;25.91;42.22;96923.06;6143530;22;20163;-79
2022/08/11 17:01:58;;;;;;;2.70;2.50;;;;;;;25.18;42.52;96832.06;6162012;22;20163;-78
2022/08/11 17:13:57;;;;;;;2.70;2.23;;;;;;;25.98;42.29;96963.03;6175531;22;20262;-76
2022/08/11 17:16:35;;;;;;;4.10;2.23;;;;;;;25.28;41.88;96831.88;6151179;22;20211;-75
2022/08/11 17:19:22;;;;;;;4.73;2.57;;;;;;;26.13;41.91;96999.38;6151238;22;20158;-76
2022/08/11 17:24:58;;;;;;;2.60;2.40;;;;;;;24.98;41.96;96883.69;6165600;22;20474;-75
2022/08/11 17:27:27;;;;;;;3.80;2.80;;;;;;;25.48;42.39;96979.09;6139193;22;20162;-76
2022/08/11 17:29:58;;;;;;;4.90;2.00;;;;;;;25.68;42.33;97005.16;6161079;22;20159;-76
2022/08/11 17:35:39;;;;;;;4.07;2.40;;;;;;;25.70;42.48;97018.25;6162033;22;20165;-77
2022/08/11 17:38:21;;;;;;;2.50;2.30;;;;;;;25.17;42.36;96917.88;6136133;22;20162;-75
2022/08/11 17:49:36;;;;;;;2.33;2.13;;;;;;;25.05;42.66;96924.47;6162031;22;20412;-75
2022/08/11 18:00:28;;;;;;;1.90;1.70;;;;;;;25.37;43.01;97027.94;6165796;22;20178;-75
2022/08/11 18:05:48;;;;;;;3.00;2.00;;;;;;;24.62;42.74;96906.09;6164090;22;20161;-76
